WXM80 ListenWXM80 Stop

You find our weather info also at:

UK Metoffice

WeatherCloud

Weather Underground

Northeastern Weather Network

AWEKAS

Citizen Weather Observer Program (CWOP)

HAMweather, WeatherForYou, PWS Weather


Weather Underground History page Text

Daily Summary for July 28, 2016 Units:  English    Metric   Both
« Previous Day
Next Day »
Daily Weekly Monthly Yearly Custom
  High: Low: Average:
Temperature: 95.2 °F 71.8 °F 81.4 °F
Dew Point: 79.2 °F 66.8 °F 72.5 °F
Humidity: 97 % 40 % 77 %
Wind Speed: 3.9 mph 0.0 mph 0.8 mph
Wind Gust: 11.5 mph - -
Wind:- - SE
Pressure: 29.90 in 29.81 in -
Precipitation: 0.00 in    
Historical Graphs
 
 
Tabular Data for July 28, 2016
Time Temperature Dew Point Pressure Wind Wind Speed Wind Gust Humidity Rainfall Rate (Hourly)
00:04 76.4 °F 71.9 °F 29.87 in SSE 0.1 mph 1.2 mph 86 % 0.00 in
00:09 76.4 °F 71.6 °F 29.87 in SSE 0.2 mph 1.2 mph 85 % 0.00 in
00:14 76.3 °F 71.8 °F 29.87 in SSE 0.1 mph 1.2 mph 86 % 0.00 in
00:19 76.3 °F 71.8 °F 29.87 in SSE 0.1 mph 1.2 mph 86 % 0.00 in
00:24 76.3 °F 71.8 °F 29.87 in Calm   1.0 mph 86 % 0.00 in
00:29 76.3 °F 71.8 °F 29.87 in South 0.6 mph 1.2 mph 86 % 0.00 in
00:35 76.2 °F 72.0 °F 29.87 in Calm   2.3 mph 87 % 0.00 in
00:40 76.2 °F 71.7 °F 29.87 in Calm     86 % 0.00 in
00:45 76.1 °F 71.6 °F 29.87 in SE 0.2 mph 1.2 mph 86 % 0.00 in
00:50 76.0 °F 71.8 °F 29.87 in Calm   1.2 mph 87 % 0.00 in
00:55 76.0 °F 71.5 °F 29.87 in Calm   1.2 mph 86 % 0.00 in
01:00 75.9 °F 71.8 °F 29.87 in Calm   1.2 mph 87 % 0.00 in
01:05 75.9 °F 71.8 °F 29.87 in Calm     87 % 0.00 in
01:10 75.8 °F 71.7 °F 29.87 in Calm     87 % 0.00 in
01:15 75.8 °F 71.7 °F 29.87 in Calm     87 % 0.00 in
01:20 75.7 °F 71.6 °F 29.87 in Calm     87 % 0.00 in
01:26 75.6 °F 71.5 °F 29.87 in Calm   1.0 mph 87 % 0.00 in
01:31 75.5 °F 71.4 °F 29.88 in Calm     87 % 0.00 in
01:36 75.5 °F 71.7 °F 29.87 in Calm     88 % 0.00 in
01:41 75.3 °F 71.5 °F 29.88 in Calm     88 % 0.00 in
01:46 75.2 °F 71.7 °F 29.88 in Calm     89 % 0.00 in
01:51 75.0 °F 71.5 °F 29.88 in Calm   1.0 mph 89 % 0.00 in
01:56 74.8 °F 71.3 °F 29.88 in Calm     89 % 0.00 in
02:01 74.7 °F 71.2 °F 29.88 in Calm     89 % 0.00 in
02:06 74.6 °F 71.1 °F 29.88 in Calm     89 % 0.00 in
02:11 74.6 °F 71.1 °F 29.87 in Calm     89 % 0.00 in
02:16 74.5 °F 71.4 °F 29.87 in Calm     90 % 0.00 in
02:21 74.4 °F 71.3 °F 29.87 in Calm     90 % 0.00 in
02:26 74.3 °F 71.2 °F 29.88 in Calm     90 % 0.00 in
02:31 74.2 °F 71.1 °F 29.88 in Calm     90 % 0.00 in
02:36 74.2 °F 71.4 °F 29.87 in NE 0.9 mph 2.3 mph 91 % 0.00 in
02:41 74.1 °F 71.3 °F 29.87 in Calm     91 % 0.00 in
02:46 74.0 °F 70.9 °F 29.87 in Calm     90 % 0.00 in
02:51 73.9 °F 71.1 °F 29.87 in Calm     91 % 0.00 in
03:02 73.8 °F 70.7 °F 29.87 in Calm     90 % 0.00 in
03:07 73.7 °F 70.9 °F 29.87 in Calm     91 % 0.00 in
03:12 73.6 °F 70.8 °F 29.87 in Calm     91 % 0.00 in
03:17 73.6 °F 70.8 °F 29.87 in Calm     91 % 0.00 in
03:22 73.5 °F 70.7 °F 29.87 in Calm     91 % 0.00 in
03:27 73.4 °F 70.6 °F 29.87 in Calm     91 % 0.00 in
03:32 73.3 °F 70.5 °F 29.87 in Calm     91 % 0.00 in
03:37 73.1 °F 70.3 °F 29.87 in Calm     91 % 0.00 in
03:42 73.1 °F 70.3 °F 29.87 in Calm     91 % 0.00 in
03:47 73.0 °F 70.2 °F 29.87 in Calm     91 % 0.00 in
03:53 72.9 °F 70.4 °F 29.87 in Calm     92 % 0.00 in
03:58 72.9 °F 70.4 °F 29.86 in Calm     92 % 0.00 in
04:03 72.9 °F 70.8 °F 29.86 in Calm   1.2 mph 93 % 0.00 in
04:08 72.9 °F 70.8 °F 29.86 in Calm     93 % 0.00 in
04:13 72.9 °F 70.8 °F 29.87 in NE 0.1 mph 1.2 mph 93 % 0.00 in
04:18 72.9 °F 71.1 °F 29.87 in NW 0.1 mph 1.2 mph 94 % 0.00 in
04:23 73.1 °F 71.3 °F 29.87 in Calm     94 % 0.00 in
04:28 73.2 °F 71.4 °F 29.87 in NW 0.1 mph 1.2 mph 94 % 0.00 in
04:33 73.2 °F 71.7 °F 29.87 in NW 0.5 mph 1.2 mph 95 % 0.00 in
04:38 73.3 °F 71.8 °F 29.87 in Calm     95 % 0.00 in
04:44 73.3 °F 71.5 °F 29.87 in Calm     94 % 0.00 in
04:49 73.1 °F 71.3 °F 29.87 in Calm   1.2 mph 94 % 0.00 in
04:54 73.0 °F 71.2 °F 29.87 in Calm     94 % 0.00 in
04:59 72.9 °F 70.8 °F 29.87 in Calm     93 % 0.00 in
05:04 72.8 °F 70.7 °F 29.87 in Calm     93 % 0.00 in
05:09 72.7 °F 70.6 °F 29.88 in Calm     93 % 0.00 in
05:14 72.6 °F 70.5 °F 29.88 in Calm     93 % 0.00 in
05:19 72.5 °F 70.4 °F 29.88 in Calm     93 % 0.00 in
05:24 72.4 °F 70.3 °F 29.87 in Calm     93 % 0.00 in
05:29 72.2 °F 70.1 °F 29.88 in Calm     93 % 0.00 in
05:35 72.1 °F 70.0 °F 29.88 in Calm     93 % 0.00 in
05:40 72.0 °F 69.9 °F 29.88 in Calm     93 % 0.00 in
05:45 72.0 °F 69.9 °F 29.88 in Calm     93 % 0.00 in
05:50 71.9 °F 69.8 °F 29.88 in Calm     93 % 0.00 in
05:55 71.9 °F 69.8 °F 29.88 in Calm     93 % 0.00 in
06:00 71.9 °F 70.1 °F 29.88 in Calm     94 % 0.00 in
06:05 71.9 °F 70.1 °F 29.88 in Calm     94 % 0.00 in
06:10 71.9 °F 70.1 °F 29.88 in Calm     94 % 0.00 in
06:15 71.8 °F 70.0 °F 29.88 in Calm     94 % 0.00 in
06:21 71.8 °F 70.0 °F 29.88 in Calm     94 % 0.00 in
06:26 71.8 °F 70.0 °F 29.88 in Calm     94 % 0.00 in
06:31 71.9 °F 70.1 °F 29.88 in Calm     94 % 0.00 in
06:36 71.9 °F 70.1 °F 29.87 in Calm     94 % 0.00 in
06:41 72.1 °F 70.6 °F 29.88 in Calm     95 % 0.00 in
06:46 72.3 °F 70.8 °F 29.88 in Calm     95 % 0.00 in
06:51 72.5 °F 71.3 °F 29.88 in Calm     96 % 0.00 in
06:56 72.8 °F 71.6 °F 29.88 in Calm     96 % 0.00 in
07:01 73.0 °F 71.8 °F 29.89 in Calm     96 % 0.00 in
07:06 73.0 °F 71.8 °F 29.88 in Calm     96 % 0.00 in
07:11 73.2 °F 72.0 °F 29.89 in Calm     96 % 0.00 in
07:16 73.4 °F 72.2 °F 29.89 in Calm     96 % 0.00 in
07:21 73.5 °F 72.3 °F 29.89 in Calm     96 % 0.00 in
07:26 73.8 °F 72.9 °F 29.89 in Calm     97 % 0.00 in
07:31 74.0 °F 73.1 °F 29.89 in Calm     97 % 0.00 in
07:35 74.1 °F 73.2 °F 29.89 in Calm     97 % 0.00 in
07:40 74.2 °F 73.3 °F 29.89 in West 0.7 mph 2.3 mph 97 % 0.00 in
07:50 74.4 °F 73.5 °F 29.90 in West 0.3 mph 1.2 mph 97 % 0.00 in
07:55 74.6 °F 73.7 °F 29.89 in Calm     97 % 0.00 in
08:00 74.7 °F 73.8 °F 29.89 in Calm     97 % 0.00 in
08:05 74.8 °F 73.9 °F 29.90 in Calm     97 % 0.00 in
08:10 74.9 °F 74.0 °F 29.90 in West 0.1 mph 1.2 mph 97 % 0.00 in
08:16 75.1 °F 74.2 °F 29.90 in Calm   1.0 mph 97 % 0.00 in
08:21 75.3 °F 74.4 °F 29.90 in Calm     97 % 0.00 in
08:26 75.5 °F 74.6 °F 29.90 in Calm   2.0 mph 97 % 0.00 in
08:31 75.7 °F 74.8 °F 29.90 in NE 1.0 mph 2.0 mph 97 % 0.00 in
08:36 75.9 °F 75.0 °F 29.90 in Calm   1.2 mph 97 % 0.00 in
08:41 76.1 °F 75.2 °F 29.90 in Calm   2.0 mph 97 % 0.00 in
08:46 76.2 °F 75.3 °F 29.90 in Calm   1.0 mph 97 % 0.00 in
08:51 76.5 °F 75.6 °F 29.89 in NE 0.1 mph 1.2 mph 97 % 0.00 in
08:56 76.7 °F 75.5 °F 29.89 in NE 1.0 mph 2.0 mph 96 % 0.00 in
09:01 76.9 °F 75.7 °F 29.90 in NE 0.4 mph 2.3 mph 96 % 0.00 in
09:06 77.2 °F 76.0 °F 29.89 in NE 0.1 mph 1.2 mph 96 % 0.00 in
09:11 77.3 °F 75.8 °F 29.89 in NE 1.2 mph 2.3 mph 95 % 0.00 in
09:16 77.3 °F 75.1 °F 29.89 in NE 0.2 mph 1.2 mph 93 % 0.00 in
09:21 77.3 °F 75.1 °F 29.89 in NE 0.2 mph 1.0 mph 93 % 0.00 in
09:26 77.5 °F 75.3 °F 29.89 in NE 1.0 mph 2.3 mph 93 % 0.00 in
09:31 77.5 °F 75.0 °F 29.89 in NE 0.8 mph 2.3 mph 92 % 0.00 in
09:36 77.4 °F 74.9 °F 29.89 in NE 1.1 mph 3.5 mph 92 % 0.00 in
09:41 77.6 °F 75.1 °F 29.89 in NE 1.9 mph 2.3 mph 92 % 0.00 in
09:46 77.8 °F 75.3 °F 29.89 in NE 0.5 mph 3.5 mph 92 % 0.00 in
09:51 78.0 °F 75.5 °F 29.89 in Calm   2.3 mph 92 % 0.00 in
09:57 78.4 °F 75.6 °F 29.89 in NNE 0.4 mph 1.2 mph 91 % 0.00 in
10:02 78.7 °F 75.8 °F 29.89 in NNE 1.1 mph 2.3 mph 91 % 0.00 in
10:07 79.3 °F 76.4 °F 29.89 in NE 0.4 mph 2.3 mph 91 % 0.00 in
10:12 80.0 °F 76.8 °F 29.89 in NE 0.4 mph 2.3 mph 90 % 0.00 in
10:17 80.7 °F 77.2 °F 29.89 in NE 0.8 mph 2.3 mph 89 % 0.00 in
10:22 81.6 °F 77.0 °F 29.89 in NE 0.9 mph 2.0 mph 86 % 0.00 in
10:27 82.5 °F 77.9 °F 29.89 in NE 1.0 mph 2.3 mph 86 % 0.00 in
10:32 83.4 °F 78.8 °F 29.88 in NE 1.7 mph 3.5 mph 86 % 0.00 in
10:37 84.3 °F 77.8 °F 29.89 in NNE 3.1 mph 4.0 mph 81 % 0.00 in
10:42 85.0 °F 77.4 °F 29.89 in NNE 2.5 mph 3.5 mph 78 % 0.00 in
10:48 85.7 °F 77.7 °F 29.88 in NNE 2.7 mph 3.5 mph 77 % 0.00 in
10:53 86.1 °F 76.4 °F 29.88 in NNE 2.0 mph 3.5 mph 73 % 0.00 in
10:58 86.6 °F 78.1 °F 29.88 in NNE 2.8 mph 3.5 mph 76 % 0.00 in
11:03 86.9 °F 78.4 °F 29.88 in NNE 1.1 mph 3.5 mph 76 % 0.00 in
11:08 87.3 °F 79.2 °F 29.88 in NNE 1.0 mph 2.3 mph 77 % 0.00 in
11:13 87.8 °F 78.9 °F 29.88 in Calm     75 % 0.00 in
11:18 88.3 °F 77.7 °F 29.88 in North 1.3 mph 3.0 mph 71 % 0.00 in
11:23 88.9 °F 76.5 °F 29.88 in NNE 1.1 mph 3.5 mph 67 % 0.00 in
11:28 89.4 °F 76.5 °F 29.88 in NNE 2.5 mph 5.0 mph 66 % 0.00 in
11:33 89.7 °F 77.7 °F 29.88 in NNE 1.9 mph 4.0 mph 68 % 0.00 in
11:38 90.1 °F 77.7 °F 29.87 in North 3.1 mph 4.6 mph 67 % 0.00 in
11:43 90.5 °F 78.0 °F 29.87 in NNE 1.6 mph 4.6 mph 67 % 0.00 in
11:49 91.1 °F 78.6 °F 29.87 in NNE 1.2 mph 2.3 mph 67 % 0.00 in
11:54 91.3 °F 75.5 °F 29.87 in North 2.2 mph 5.0 mph 60 % 0.00 in
11:59 91.4 °F 74.5 °F 29.87 in NNE 0.8 mph 4.6 mph 58 % 0.00 in
12:04 91.6 °F 73.1 °F 29.87 in NNE 2.8 mph 4.0 mph 55 % 0.00 in
12:09 91.9 °F 72.3 °F 29.87 in North 2.4 mph 3.5 mph 53 % 0.00 in
12:14 92.2 °F 72.6 °F 29.87 in NNW 2.9 mph 4.6 mph 53 % 0.00 in
12:19 92.5 °F 72.3 °F 29.87 in North 2.6 mph 4.6 mph 52 % 0.00 in
12:24 92.9 °F 73.8 °F 29.87 in NNE 3.0 mph 4.6 mph 54 % 0.00 in
12:29 93.3 °F 72.5 °F 29.87 in NNE 2.7 mph 4.0 mph 51 % 0.00 in
12:35 93.6 °F 72.7 °F 29.87 in NNE 3.0 mph 4.6 mph 51 % 0.00 in
12:40 93.3 °F 73.0 °F 29.86 in NNE 2.8 mph 3.5 mph 52 % 0.00 in
12:45 93.4 °F 74.3 °F 29.86 in NE 1.6 mph 3.5 mph 54 % 0.00 in
12:50 93.5 °F 73.2 °F 29.87 in ENE 0.9 mph 2.3 mph 52 % 0.00 in
12:55 93.7 °F 72.3 °F 29.86 in NE 0.8 mph 2.3 mph 50 % 0.00 in
13:00 93.9 °F 71.8 °F 29.86 in ENE 1.5 mph 2.3 mph 49 % 0.00 in
13:05 94.0 °F 73.1 °F 29.86 in ENE 1.5 mph 3.5 mph 51 % 0.00 in
13:10 94.0 °F 73.7 °F 29.86 in ENE 1.1 mph 3.5 mph 52 % 0.00 in
13:15 93.9 °F 73.0 °F 29.86 in NE 1.1 mph 3.5 mph 51 % 0.00 in
13:20 93.8 °F 75.7 °F 29.85 in NE 1.0 mph 2.3 mph 56 % 0.00 in
13:26 93.7 °F 75.1 °F 29.85 in ENE 0.3 mph 3.5 mph 55 % 0.00 in
13:31 93.5 °F 76.0 °F 29.85 in Calm   3.0 mph 57 % 0.00 in
13:36 93.5 °F 73.2 °F 29.85 in Calm   2.0 mph 52 % 0.00 in
13:41 93.4 °F 72.0 °F 29.85 in NE 0.8 mph 1.2 mph 50 % 0.00 in
13:46 93.6 °F 72.2 °F 29.85 in NE 1.1 mph 2.3 mph 50 % 0.00 in
13:51 93.6 °F 71.6 °F 29.84 in NE 0.3 mph 1.2 mph 49 % 0.00 in
13:56 93.7 °F 69.8 °F 29.84 in NE 1.7 mph 2.3 mph 46 % 0.00 in
14:01 93.8 °F 71.1 °F 29.84 in NE 0.9 mph 2.3 mph 48 % 0.00 in
14:06 94.1 °F 69.5 °F 29.83 in NE 0.2 mph 2.3 mph 45 % 0.00 in
14:11 94.4 °F 69.1 °F 29.83 in NE 1.2 mph 2.3 mph 44 % 0.00 in
14:16 94.4 °F 69.1 °F 29.82 in NE 2.0 mph 3.5 mph 44 % 0.00 in
14:21 94.5 °F 69.9 °F 29.82 in NNE 2.9 mph 3.5 mph 45 % 0.00 in
14:26 94.5 °F 69.9 °F 29.83 in ENE 3.8 mph 4.0 mph 45 % 0.00 in
14:32 94.5 °F 68.5 °F 29.82 in NE 1.4 mph 3.5 mph 43 % 0.00 in
14:37 94.5 °F 69.2 °F 29.82 in ENE 0.8 mph 3.5 mph 44 % 0.00 in
14:42 94.1 °F 66.8 °F 29.82 in ENE 1.5 mph 3.5 mph 41 % 0.00 in
14:47 93.8 °F 68.6 °F 29.82 in NE 0.2 mph 1.2 mph 44 % 0.00 in
14:52 94.0 °F 68.8 °F 29.82 in NE 0.5 mph 1.2 mph 44 % 0.00 in
14:57 94.1 °F 68.2 °F 29.82 in NE 0.5 mph 3.5 mph 43 % 0.00 in
15:02 94.3 °F 69.0 °F 29.82 in ENE 0.2 mph 1.2 mph 44 % 0.00 in
15:07 94.6 °F 68.6 °F 29.82 in ENE 0.2 mph 1.2 mph 43 % 0.00 in
15:12 94.7 °F 67.3 °F 29.82 in ENE 1.5 mph 3.0 mph 41 % 0.00 in
15:17 94.8 °F 67.4 °F 29.82 in ENE 1.4 mph 3.0 mph 41 % 0.00 in
15:23 95.0 °F 67.6 °F 29.82 in ENE 0.6 mph 2.3 mph 41 % 0.00 in
15:28 95.2 °F 67.1 °F 29.82 in ENE 0.1 mph 1.2 mph 40 % 0.00 in
15:33 94.9 °F 68.2 °F 29.82 in SSE 1.1 mph 3.5 mph 42 % 0.00 in
15:38 94.3 °F 72.8 °F 29.82 in ESE 3.4 mph 9.2 mph 50 % 0.00 in
15:43 93.9 °F 73.6 °F 29.82 in SSE 1.6 mph 6.0 mph 52 % 0.00 in
15:48 93.2 °F 73.0 °F 29.82 in SW 0.4 mph 3.5 mph 52 % 0.00 in
15:53 92.7 °F 74.2 °F 29.82 in South 1.8 mph 3.5 mph 55 % 0.00 in
15:58 92.5 °F 71.7 °F 29.83 in SSW 2.4 mph 3.5 mph 51 % 0.00 in
16:03 92.7 °F 72.5 °F 29.82 in SE 0.6 mph 3.5 mph 52 % 0.00 in
16:08 92.5 °F 73.4 °F 29.82 in SE 3.0 mph 5.8 mph 54 % 0.00 in
16:13 91.5 °F 74.1 °F 29.82 in SE 2.3 mph 4.6 mph 57 % 0.00 in
16:18 91.1 °F 74.3 °F 29.82 in SE 1.0 mph 3.5 mph 58 % 0.00 in
16:24 90.8 °F 74.5 °F 29.82 in SSE 1.7 mph 5.0 mph 59 % 0.00 in
16:29 89.8 °F 72.5 °F 29.82 in SE 1.2 mph 5.8 mph 57 % 0.00 in
16:34 89.5 °F 72.3 °F 29.82 in SSE 3.9 mph 11.5 mph 57 % 0.00 in
16:39 89.0 °F 71.8 °F 29.81 in South 3.8 mph 11.5 mph 57 % 0.00 in
16:44 88.7 °F 73.0 °F 29.82 in South 2.4 mph 3.5 mph 60 % 0.00 in
16:49 88.4 °F 72.7 °F 29.82 in SSW 1.7 mph 3.5 mph 60 % 0.00 in
16:54 88.3 °F 72.7 °F 29.82 in SE 2.2 mph 4.6 mph 60 % 0.00 in
16:59 87.9 °F 72.3 °F 29.81 in SW 1.2 mph 3.5 mph 60 % 0.00 in
17:04 87.5 °F 72.9 °F 29.81 in SE 2.4 mph 4.0 mph 62 % 0.00 in
17:09 87.3 °F 73.6 °F 29.82 in SSE 1.4 mph 3.5 mph 64 % 0.00 in
17:14 87.0 °F 74.3 °F 29.82 in SSE 3.5 mph 8.0 mph 66 % 0.00 in
17:20 86.3 °F 74.0 °F 29.82 in South 2.9 mph 8.1 mph 67 % 0.00 in
17:25 85.9 °F 74.5 °F 29.82 in South 0.5 mph 3.5 mph 69 % 0.00 in
17:30 85.5 °F 74.2 °F 29.82 in SSE 3.7 mph 6.9 mph 69 % 0.00 in
17:35 85.2 °F 73.9 °F 29.82 in SE 1.0 mph 3.5 mph 69 % 0.00 in
17:40 85.1 °F 74.2 °F 29.83 in South 0.8 mph 2.3 mph 70 % 0.00 in
17:45 84.9 °F 74.0 °F 29.83 in SSW 1.5 mph 3.5 mph 70 % 0.00 in
17:50 84.8 °F 73.9 °F 29.83 in SSW 2.1 mph 4.6 mph 70 % 0.00 in
17:55 84.7 °F 73.8 °F 29.83 in SSW 2.6 mph 4.6 mph 70 % 0.00 in
18:00 84.6 °F 73.3 °F 29.83 in SSW 1.8 mph 4.6 mph 69 % 0.00 in
18:05 84.4 °F 73.1 °F 29.83 in South 2.0 mph 3.5 mph 69 % 0.00 in
18:11 84.4 °F 73.1 °F 29.83 in South 2.1 mph 4.6 mph 69 % 0.00 in
18:16 84.3 °F 73.0 °F 29.83 in SSW 2.0 mph 7.0 mph 69 % 0.00 in
18:21 84.2 °F 73.3 °F 29.83 in South 1.0 mph 5.0 mph 70 % 0.00 in
18:26 84.0 °F 73.2 °F 29.83 in South 3.0 mph 8.0 mph 70 % 0.00 in
18:30 83.9 °F 73.1 °F 29.83 in SSW 0.4 mph 2.3 mph 70 % 0.00 in
18:36 83.8 °F 73.0 °F 29.83 in South 1.0 mph 6.0 mph 70 % 0.00 in
18:41 83.7 °F 73.3 °F 29.83 in South 2.0 mph 5.0 mph 71 % 0.00 in
18:46 83.6 °F 73.2 °F 29.83 in South 1.0 mph 5.0 mph 71 % 0.00 in
18:51 83.4 °F 73.0 °F 29.83 in SW 1.0 mph 7.0 mph 71 % 0.00 in
18:56 83.3 °F 73.3 °F 29.83 in SW 1.0 mph 10.0 mph 72 % 0.00 in
19:01 83.2 °F 73.6 °F 29.83 in SE 1.1 mph 3.5 mph 73 % 0.00 in
19:06 83.1 °F 73.1 °F 29.83 in Calm   8.0 mph 72 % 0.00 in
19:11 83.0 °F 73.4 °F 29.83 in SW 1.0 mph 5.0 mph 73 % 0.00 in
19:16 83.0 °F 73.9 °F 29.83 in South 0.4 mph 4.6 mph 74 % 0.00 in
19:21 82.9 °F 73.8 °F 29.83 in Calm   7.0 mph 74 % 0.00 in
19:26 82.8 °F 74.1 °F 29.83 in SW 2.0 mph 6.0 mph 75 % 0.00 in
19:31 82.7 °F 74.0 °F 29.83 in South 0.5 mph 3.5 mph 75 % 0.00 in
19:36 82.6 °F 73.9 °F 29.83 in SSW 3.0 mph 9.0 mph 75 % 0.00 in
19:41 82.5 °F 73.8 °F 29.83 in SW 1.0 mph 5.0 mph 75 % 0.00 in
19:46 82.4 °F 73.3 °F 29.83 in SSW 3.2 mph 3.5 mph 74 % 0.00 in
19:51 82.3 °F 73.2 °F 29.83 in SW 3.0 mph 5.0 mph 74 % 0.00 in
19:56 82.2 °F 73.1 °F 29.83 in WSW 2.0 mph 4.0 mph 74 % 0.00 in
20:01 82.0 °F 72.1 °F 29.83 in SSW 2.5 mph 9.2 mph 72 % 0.00 in
20:06 81.9 °F 71.6 °F 29.83 in SW 2.0 mph 10.0 mph 71 % 0.00 in
20:11 81.8 °F 71.5 °F 29.83 in SW 1.0 mph 4.0 mph 71 % 0.00 in
20:16 81.7 °F 71.4 °F 29.83 in WSW 2.5 mph 5.0 mph 71 % 0.00 in
20:21 81.6 °F 71.3 °F 29.82 in WSW 1.0 mph 3.0 mph 71 % 0.00 in
20:26 81.6 °F 71.6 °F 29.83 in WSW 1.0 mph 4.0 mph 72 % 0.00 in
20:31 81.5 °F 72.0 °F 29.83 in SW 3.1 mph 4.0 mph 73 % 0.00 in
20:36 81.4 °F 71.9 °F 29.83 in SW 1.0 mph 4.0 mph 73 % 0.00 in
20:41 81.4 °F 72.3 °F 29.83 in SW 2.0 mph 5.0 mph 74 % 0.00 in
20:46 81.3 °F 72.2 °F 29.82 in Calm   3.0 mph 74 % 0.00 in
20:51 81.2 °F 72.1 °F 29.82 in Calm   2.0 mph 74 % 0.00 in
20:56 81.1 °F 72.0 °F 29.82 in WSW 1.0 mph 2.0 mph 74 % 0.00 in
21:01 81.1 °F 72.0 °F 29.82 in WSW 0.2 mph 2.3 mph 74 % 0.00 in
21:06 80.9 °F 71.9 °F 29.82 in SW 2.0 mph 6.0 mph 74 % 0.00 in
21:11 80.8 °F 71.8 °F 29.82 in SW 2.0 mph 3.0 mph 74 % 0.00 in
21:16 80.8 °F 72.1 °F 29.82 in Calm   2.0 mph 75 % 0.00 in
21:21 80.7 °F 72.0 °F 29.82 in Calm   1.0 mph 75 % 0.00 in
21:26 80.6 °F 71.9 °F 29.83 in Calm   2.0 mph 75 % 0.00 in
21:31 80.5 °F 71.8 °F 29.83 in Calm   4.0 mph 75 % 0.00 in
21:36 80.4 °F 71.3 °F 29.83 in SW 1.0 mph 6.0 mph 74 % 0.00 in
21:41 80.3 °F 71.3 °F 29.83 in Calm   2.0 mph 74 % 0.00 in
21:46 80.2 °F 71.2 °F 29.84 in Calm   2.0 mph 74 % 0.00 in
21:51 80.1 °F 71.1 °F 29.84 in SW 1.0 mph 4.0 mph 74 % 0.00 in
21:56 80.0 °F 70.6 °F 29.84 in Calm   2.0 mph 73 % 0.00 in
22:01 79.9 °F 70.5 °F 29.84 in WSW 3.2 mph 3.5 mph 73 % 0.00 in
22:06 79.9 °F 70.5 °F 29.84 in WSW 1.0 mph 5.0 mph 73 % 0.00 in
22:11 79.8 °F 70.4 °F 29.84 in Calm   4.0 mph 73 % 0.00 in
22:16 79.7 °F 70.3 °F 29.84 in WSW 2.0 mph 3.0 mph 73 % 0.00 in
22:21 79.7 °F 70.3 °F 29.84 in Calm   2.3 mph 73 % 0.00 in
22:26 79.7 °F 70.7 °F 29.84 in Calm   1.2 mph 74 % 0.00 in
22:31 79.6 °F 71.0 °F 29.84 in Calm   2.3 mph 75 % 0.00 in
22:36 79.5 °F 70.9 °F 29.84 in SW 0.8 mph 2.3 mph 75 % 0.00 in
22:41 79.4 °F 70.8 °F 29.84 in Calm     75 % 0.00 in
22:46 79.3 °F 71.1 °F 29.83 in Calm     76 % 0.00 in
22:51 79.2 °F 71.4 °F 29.84 in Calm     77 % 0.00 in
22:56 79.1 °F 71.3 °F 29.84 in Calm     77 % 0.00 in
23:01 78.9 °F 71.1 °F 29.84 in Calm     77 % 0.00 in
23:06 78.8 °F 71.4 °F 29.83 in SW 0.1 mph 1.2 mph 78 % 0.00 in
23:11 78.7 °F 71.3 °F 29.84 in Calm   1.2 mph 78 % 0.00 in
23:16 78.5 °F 71.1 °F 29.84 in Calm     78 % 0.00 in
23:22 78.4 °F 71.3 °F 29.84 in Calm     79 % 0.00 in
23:27 78.3 °F 71.6 °F 29.84 in Calm   1.2 mph 80 % 0.00 in
23:32 78.2 °F 71.5 °F 29.84 in Calm     80 % 0.00 in
23:37 78.1 °F 71.8 °F 29.84 in Calm     81 % 0.00 in
23:42 78.0 °F 71.7 °F 29.84 in Calm     81 % 0.00 in
23:47 77.8 °F 71.9 °F 29.84 in Calm     82 % 0.00 in
23:52 77.8 °F 72.2 °F 29.84 in Calm     83 % 0.00 in
23:57 77.7 °F 72.1 °F 29.84 in Calm   1.0 mph 83 % 0.00 in
Crab Meadow Weather
Compliments of Weather Underground - 3 mb

Script developed by  Jim McMurry - jmcmurry@mwt.net Adapted for the template by  Wim van der Kuil - Leuven-Template.eu

Weather Terms: Severe Thunderstorm Watch - Conditions are favorable for the development of severe thunderstorms in and close to the watch area. These watches are issued for large areas by the Storm Prediction Center in Norman, Oklahoma, and are usually valid for four to six hours.